sensor_id;sensor_type;location;lat;lon;timestamp;P1;durP1;ratioP1;P2;durP2;ratioP2
8683;SDS011;4379;59.744;18.206;2023-08-06T00:01:15;3.75;;;3.55;;
8683;SDS011;4379;59.744;18.206;2023-08-06T00:03:45;4.18;;;3.78;;
8683;SDS011;4379;59.744;18.206;2023-08-06T00:06:13;4.43;;;3.97;;
8683;SDS011;4379;59.744;18.206;2023-08-06T00:08:40;4.40;;;4.10;;
8683;SDS011;4379;59.744;18.206;2023-08-06T00:11:07;4.25;;;3.42;;
8683;SDS011;4379;59.744;18.206;2023-08-06T00:13:34;4.90;;;3.63;;
8683;SDS011;4379;59.744;18.206;2023-08-06T00:16:11;5.13;;;3.80;;
8683;SDS011;4379;59.744;18.206;2023-08-06T00:18:39;6.47;;;3.45;;
8683;SDS011;4379;59.744;18.206;2023-08-06T00:21:07;4.03;;;3.72;;
8683;SDS011;4379;59.744;18.206;2023-08-06T00:23:35;5.15;;;3.90;;
8683;SDS011;4379;59.744;18.206;2023-08-06T00:26:02;4.57;;;4.28;;
8683;SDS011;4379;59.744;18.206;2023-08-06T00:28:30;4.07;;;3.88;;
8683;SDS011;4379;59.744;18.206;2023-08-06T00:30:57;4.05;;;3.83;;
8683;SDS011;4379;59.744;18.206;2023-08-06T00:33:24;4.50;;;4.13;;
8683;SDS011;4379;59.744;18.206;2023-08-06T00:35:52;4.03;;;3.72;;
8683;SDS011;4379;59.744;18.206;2023-08-06T00:38:19;4.85;;;4.32;;
8683;SDS011;4379;59.744;18.206;2023-08-06T00:40:46;4.50;;;4.20;;
8683;SDS011;4379;59.744;18.206;2023-08-06T00:43:14;4.82;;;4.40;;
8683;SDS011;4379;59.744;18.206;2023-08-06T00:45:41;4.37;;;4.07;;
8683;SDS011;4379;59.744;18.206;2023-08-06T00:48:09;4.30;;;3.97;;
8683;SDS011;4379;59.744;18.206;2023-08-06T00:50:37;4.53;;;4.13;;
8683;SDS011;4379;59.744;18.206;2023-08-06T00:53:04;4.70;;;4.38;;
8683;SDS011;4379;59.744;18.206;2023-08-06T00:55:32;6.32;;;4.03;;
8683;SDS011;4379;59.744;18.206;2023-08-06T00:58:00;4.35;;;3.92;;
8683;SDS011;4379;59.744;18.206;2023-08-06T01:00:28;4.63;;;4.05;;
8683;SDS011;4379;59.744;18.206;2023-08-06T01:02:56;4.30;;;4.00;;
8683;SDS011;4379;59.744;18.206;2023-08-06T01:05:23;6.40;;;4.32;;
8683;SDS011;4379;59.744;18.206;2023-08-06T01:13:58;5.90;;;4.50;;
8683;SDS011;4379;59.744;18.206;2023-08-06T01:16:21;5.80;;;4.50;;
8683;SDS011;4379;59.744;18.206;2023-08-06T01:18:50;5.40;;;4.13;;
8683;SDS011;4379;59.744;18.206;2023-08-06T01:21:17;4.63;;;4.30;;
8683;SDS011;4379;59.744;18.206;2023-08-06T01:23:45;4.73;;;4.33;;
8683;SDS011;4379;59.744;18.206;2023-08-06T01:26:17;4.87;;;4.33;;
8683;SDS011;4379;59.744;18.206;2023-08-06T01:31:32;5.33;;;4.03;;
8683;SDS011;4379;59.744;18.206;2023-08-06T01:34:04;5.27;;;4.20;;
8683;SDS011;4379;59.744;18.206;2023-08-06T01:36:34;5.80;;;4.57;;
8683;SDS011;4379;59.744;18.206;2023-08-06T01:39:02;4.23;;;3.93;;
8683;SDS011;4379;59.744;18.206;2023-08-06T01:41:31;5.03;;;4.63;;
8683;SDS011;4379;59.744;18.206;2023-08-06T01:43:59;5.77;;;3.80;;
8683;SDS011;4379;59.744;18.206;2023-08-06T01:46:26;4.57;;;4.30;;
8683;SDS011;4379;59.744;18.206;2023-08-06T01:48:53;4.40;;;3.97;;
8683;SDS011;4379;59.744;18.206;2023-08-06T01:51:20;4.90;;;4.43;;
8683;SDS011;4379;59.744;18.206;2023-08-06T01:53:48;5.13;;;4.37;;
8683;SDS011;4379;59.744;18.206;2023-08-06T01:56:15;5.33;;;4.80;;
8683;SDS011;4379;59.744;18.206;2023-08-06T01:58:42;6.20;;;5.03;;
8683;SDS011;4379;59.744;18.206;2023-08-06T02:01:10;4.90;;;4.60;;
8683;SDS011;4379;59.744;18.206;2023-08-06T02:03:37;5.53;;;4.93;;
8683;SDS011;4379;59.744;18.206;2023-08-06T02:06:04;4.30;;;4.00;;
8683;SDS011;4379;59.744;18.206;2023-08-06T02:08:32;5.10;;;4.80;;
8683;SDS011;4379;59.744;18.206;2023-08-06T02:10:59;4.93;;;4.53;;
8683;SDS011;4379;59.744;18.206;2023-08-06T02:13:26;4.57;;;4.27;;
8683;SDS011;4379;59.744;18.206;2023-08-06T02:15:54;4.33;;;4.03;;
8683;SDS011;4379;59.744;18.206;2023-08-06T02:18:21;6.33;;;4.20;;
8683;SDS011;4379;59.744;18.206;2023-08-06T02:20:58;4.90;;;4.60;;
8683;SDS011;4379;59.744;18.206;2023-08-06T02:23:25;4.70;;;4.30;;
8683;SDS011;4379;59.744;18.206;2023-08-06T02:26:00;4.87;;;4.40;;
8683;SDS011;4379;59.744;18.206;2023-08-06T02:28:28;5.80;;;4.40;;
8683;SDS011;4379;59.744;18.206;2023-08-06T02:30:56;4.70;;;4.03;;
8683;SDS011;4379;59.744;18.206;2023-08-06T02:33:23;5.37;;;4.43;;
8683;SDS011;4379;59.744;18.206;2023-08-06T02:35:51;5.67;;;4.40;;
8683;SDS011;4379;59.744;18.206;2023-08-06T02:38:24;5.70;;;4.43;;
8683;SDS011;4379;59.744;18.206;2023-08-06T02:40:52;6.73;;;4.50;;
8683;SDS011;4379;59.744;18.206;2023-08-06T02:43:19;6.97;;;4.60;;
8683;SDS011;4379;59.744;18.206;2023-08-06T02:45:46;4.93;;;4.37;;
8683;SDS011;4379;59.744;18.206;2023-08-06T02:48:14;4.93;;;4.27;;
8683;SDS011;4379;59.744;18.206;2023-08-06T02:50:41;6.23;;;4.90;;
8683;SDS011;4379;59.744;18.206;2023-08-06T02:53:09;5.50;;;5.00;;
8683;SDS011;4379;59.744;18.206;2023-08-06T02:55:36;5.20;;;4.80;;
8683;SDS011;4379;59.744;18.206;2023-08-06T02:58:03;7.43;;;4.50;;
8683;SDS011;4379;59.744;18.206;2023-08-06T03:00:30;7.43;;;5.17;;
8683;SDS011;4379;59.744;18.206;2023-08-06T03:02:58;5.70;;;5.20;;
8683;SDS011;4379;59.744;18.206;2023-08-06T03:05:25;6.37;;;4.70;;
8683;SDS011;4379;59.744;18.206;2023-08-06T03:07:52;5.03;;;4.60;;
8683;SDS011;4379;59.744;18.206;2023-08-06T03:10:19;4.90;;;4.27;;
8683;SDS011;4379;59.744;18.206;2023-08-06T03:12:47;5.23;;;4.23;;
8683;SDS011;4379;59.744;18.206;2023-08-06T03:15:14;4.20;;;3.90;;
8683;SDS011;4379;59.744;18.206;2023-08-06T03:17:41;4.40;;;4.10;;
8683;SDS011;4379;59.744;18.206;2023-08-06T03:20:09;5.17;;;4.50;;
8683;SDS011;4379;59.744;18.206;2023-08-06T03:22:36;4.57;;;4.20;;
8683;SDS011;4379;59.744;18.206;2023-08-06T03:25:04;4.33;;;4.00;;
8683;SDS011;4379;59.744;18.206;2023-08-06T03:27:31;4.53;;;4.13;;
8683;SDS011;4379;59.744;18.206;2023-08-06T03:29:58;3.80;;;3.50;;
8683;SDS011;4379;59.744;18.206;2023-08-06T03:32:27;5.07;;;3.83;;
8683;SDS011;4379;59.744;18.206;2023-08-06T03:34:54;4.30;;;4.00;;
8683;SDS011;4379;59.744;18.206;2023-08-06T03:37:22;4.67;;;3.47;;
8683;SDS011;4379;59.744;18.206;2023-08-06T03:39:49;4.57;;;3.40;;
8683;SDS011;4379;59.744;18.206;2023-08-06T03:42:16;4.00;;;3.60;;
8683;SDS011;4379;59.744;18.206;2023-08-06T03:44:43;3.87;;;3.67;;
8683;SDS011;4379;59.744;18.206;2023-08-06T03:47:11;4.07;;;3.77;;
8683;SDS011;4379;59.744;18.206;2023-08-06T03:49:38;3.57;;;3.37;;
8683;SDS011;4379;59.744;18.206;2023-08-06T03:52:05;3.60;;;3.40;;
8683;SDS011;4379;59.744;18.206;2023-08-06T03:54:33;3.93;;;3.63;;
8683;SDS011;4379;59.744;18.206;2023-08-06T03:57:00;3.10;;;3.00;;
8683;SDS011;4379;59.744;18.206;2023-08-06T03:59:28;4.00;;;3.30;;
8683;SDS011;4379;59.744;18.206;2023-08-06T04:01:55;3.63;;;3.07;;
8683;SDS011;4379;59.744;18.206;2023-08-06T04:04:22;3.30;;;3.10;;
8683;SDS011;4379;59.744;18.206;2023-08-06T04:06:49;3.50;;;3.20;;
8683;SDS011;4379;59.744;18.206;2023-08-06T04:09:17;2.90;;;2.70;;
8683;SDS011;4379;59.744;18.206;2023-08-06T04:11:44;3.47;;;3.17;;
8683;SDS011;4379;59.744;18.206;2023-08-06T04:14:11;3.93;;;3.60;;
8683;SDS011;4379;59.744;18.206;2023-08-06T04:16:39;3.55;;;3.35;;
8683;SDS011;4379;59.744;18.206;2023-08-06T04:19:06;3.45;;;3.22;;
8683;SDS011;4379;59.744;18.206;2023-08-06T04:21:33;2.88;;;2.67;;
8683;SDS011;4379;59.744;18.206;2023-08-06T04:24:00;3.03;;;2.80;;
8683;SDS011;4379;59.744;18.206;2023-08-06T04:26:28;2.83;;;2.70;;
8683;SDS011;4379;59.744;18.206;2023-08-06T04:28:55;2.65;;;2.55;;
8683;SDS011;4379;59.744;18.206;2023-08-06T04:31:23;3.05;;;2.42;;
8683;SDS011;4379;59.744;18.206;2023-08-06T04:33:50;2.58;;;2.47;;
8683;SDS011;4379;59.744;18.206;2023-08-06T04:36:17;2.38;;;2.28;;
8683;SDS011;4379;59.744;18.206;2023-08-06T04:38:45;3.72;;;2.60;;
8683;SDS011;4379;59.744;18.206;2023-08-06T04:41:14;2.50;;;2.40;;
8683;SDS011;4379;59.744;18.206;2023-08-06T04:43:41;2.50;;;2.40;;
8683;SDS011;4379;59.744;18.206;2023-08-06T04:46:08;3.20;;;3.00;;
8683;SDS011;4379;59.744;18.206;2023-08-06T04:48:35;3.28;;;2.97;;
8683;SDS011;4379;59.744;18.206;2023-08-06T04:51:03;2.97;;;2.78;;
8683;SDS011;4379;59.744;18.206;2023-08-06T04:53:30;2.85;;;2.65;;
8683;SDS011;4379;59.744;18.206;2023-08-06T04:55:57;2.70;;;2.50;;
8683;SDS011;4379;59.744;18.206;2023-08-06T04:58:24;2.67;;;2.58;;
8683;SDS011;4379;59.744;18.206;2023-08-06T05:00:52;3.95;;;2.70;;
8683;SDS011;4379;59.744;18.206;2023-08-06T05:03:20;2.78;;;2.58;;
8683;SDS011;4379;59.744;18.206;2023-08-06T05:05:47;3.03;;;2.72;;
8683;SDS011;4379;59.744;18.206;2023-08-06T05:08:15;2.20;;;2.00;;
8683;SDS011;4379;59.744;18.206;2023-08-06T05:10:45;2.22;;;2.13;;
8683;SDS011;4379;59.744;18.206;2023-08-06T05:13:12;2.80;;;2.60;;
8683;SDS011;4379;59.744;18.206;2023-08-06T05:15:40;2.70;;;2.60;;
8683;SDS011;4379;59.744;18.206;2023-08-06T05:18:09;2.75;;;2.65;;
8683;SDS011;4379;59.744;18.206;2023-08-06T05:20:40;3.80;;;3.10;;
8683;SDS011;4379;59.744;18.206;2023-08-06T05:23:08;3.00;;;2.80;;
8683;SDS011;4379;59.744;18.206;2023-08-06T05:25:35;2.83;;;2.72;;
8683;SDS011;4379;59.744;18.206;2023-08-06T05:28:04;2.60;;;2.50;;
8683;SDS011;4379;59.744;18.206;2023-08-06T05:30:31;2.88;;;2.70;;
8683;SDS011;4379;59.744;18.206;2023-08-06T05:32:59;2.72;;;2.50;;
8683;SDS011;4379;59.744;18.206;2023-08-06T05:35:26;5.03;;;2.30;;
8683;SDS011;4379;59.744;18.206;2023-08-06T05:37:53;2.50;;;2.15;;
8683;SDS011;4379;59.744;18.206;2023-08-06T05:40:20;2.17;;;2.08;;
8683;SDS011;4379;59.744;18.206;2023-08-06T05:42:48;2.00;;;1.90;;
8683;SDS011;4379;59.744;18.206;2023-08-06T05:45:15;2.33;;;2.22;;
8683;SDS011;4379;59.744;18.206;2023-08-06T05:47:42;2.15;;;2.05;;
8683;SDS011;4379;59.744;18.206;2023-08-06T05:50:10;2.53;;;2.25;;
8683;SDS011;4379;59.744;18.206;2023-08-06T05:52:38;3.33;;;2.28;;
8683;SDS011;4379;59.744;18.206;2023-08-06T05:55:05;2.90;;;2.50;;
8683;SDS011;4379;59.744;18.206;2023-08-06T05:57:33;2.15;;;1.90;;
8683;SDS011;4379;59.744;18.206;2023-08-06T06:00:00;1.92;;;1.83;;
8683;SDS011;4379;59.744;18.206;2023-08-06T06:02:28;2.33;;;2.13;;
8683;SDS011;4379;59.744;18.206;2023-08-06T06:04:55;3.25;;;2.22;;
8683;SDS011;4379;59.744;18.206;2023-08-06T06:07:23;2.38;;;2.17;;
8683;SDS011;4379;59.744;18.206;2023-08-06T06:09:50;2.08;;;1.92;;
8683;SDS011;4379;59.744;18.206;2023-08-06T06:12:17;2.20;;;2.10;;
8683;SDS011;4379;59.744;18.206;2023-08-06T06:14:44;2.47;;;2.17;;
8683;SDS011;4379;59.744;18.206;2023-08-06T06:17:12;2.40;;;2.20;;
8683;SDS011;4379;59.744;18.206;2023-08-06T06:19:39;2.15;;;2.05;;
8683;SDS011;4379;59.744;18.206;2023-08-06T06:22:06;2.03;;;1.90;;
8683;SDS011;4379;59.744;18.206;2023-08-06T06:24:33;2.22;;;2.03;;
8683;SDS011;4379;59.744;18.206;2023-08-06T06:27:01;2.70;;;2.00;;
8683;SDS011;4379;59.744;18.206;2023-08-06T06:29:28;2.58;;;2.08;;
8683;SDS011;4379;59.744;18.206;2023-08-06T06:31:55;2.25;;;2.05;;
8683;SDS011;4379;59.744;18.206;2023-08-06T06:34:23;1.92;;;1.83;;
8683;SDS011;4379;59.744;18.206;2023-08-06T06:36:50;1.90;;;1.80;;
8683;SDS011;4379;59.744;18.206;2023-08-06T06:39:17;1.90;;;1.80;;
8683;SDS011;4379;59.744;18.206;2023-08-06T06:41:45;2.58;;;2.38;;
8683;SDS011;4379;59.744;18.206;2023-08-06T06:44:13;2.58;;;2.10;;
8683;SDS011;4379;59.744;18.206;2023-08-06T06:46:40;2.10;;;1.90;;
8683;SDS011;4379;59.744;18.206;2023-08-06T06:49:08;2.10;;;1.70;;
8683;SDS011;4379;59.744;18.206;2023-08-06T06:51:35;2.20;;;2.00;;
8683;SDS011;4379;59.744;18.206;2023-08-06T06:54:05;1.73;;;1.63;;
8683;SDS011;4379;59.744;18.206;2023-08-06T06:56:32;2.13;;;2.03;;
8683;SDS011;4379;59.744;18.206;2023-08-06T06:59:00;1.90;;;1.80;;
8683;SDS011;4379;59.744;18.206;2023-08-06T07:01:27;1.90;;;1.80;;
8683;SDS011;4379;59.744;18.206;2023-08-06T07:03:54;1.60;;;1.50;;
8683;SDS011;4379;59.744;18.206;2023-08-06T07:06:21;1.63;;;1.52;;
8683;SDS011;4379;59.744;18.206;2023-08-06T07:08:49;1.70;;;1.60;;
8683;SDS011;4379;59.744;18.206;2023-08-06T07:11:16;2.90;;;1.85;;
8683;SDS011;4379;59.744;18.206;2023-08-06T07:13:43;2.58;;;2.13;;
8683;SDS011;4379;59.744;18.206;2023-08-06T07:16:11;3.22;;;2.00;;
8683;SDS011;4379;59.744;18.206;2023-08-06T07:18:38;1.88;;;1.60;;
8683;SDS011;4379;59.744;18.206;2023-08-06T07:21:06;1.70;;;1.60;;
8683;SDS011;4379;59.744;18.206;2023-08-06T07:23:33;1.80;;;1.70;;
8683;SDS011;4379;59.744;18.206;2023-08-06T07:26:00;2.17;;;2.00;;
8683;SDS011;4379;59.744;18.206;2023-08-06T07:28:27;2.20;;;1.98;;
8683;SDS011;4379;59.744;18.206;2023-08-06T07:30:55;1.88;;;1.77;;
8683;SDS011;4379;59.744;18.206;2023-08-06T07:33:22;2.15;;;2.00;;
8683;SDS011;4379;59.744;18.206;2023-08-06T07:35:49;2.08;;;1.90;;
8683;SDS011;4379;59.744;18.206;2023-08-06T07:38:17;1.80;;;1.70;;
8683;SDS011;4379;59.744;18.206;2023-08-06T07:40:44;1.90;;;1.80;;
8683;SDS011;4379;59.744;18.206;2023-08-06T07:43:12;1.80;;;1.70;;
8683;SDS011;4379;59.744;18.206;2023-08-06T07:45:39;2.08;;;1.55;;
8683;SDS011;4379;59.744;18.206;2023-08-06T07:48:06;2.85;;;1.88;;
8683;SDS011;4379;59.744;18.206;2023-08-06T07:50:34;1.67;;;1.58;;
8683;SDS011;4379;59.744;18.206;2023-08-06T07:53:01;2.08;;;1.63;;
8683;SDS011;4379;59.744;18.206;2023-08-06T07:55:28;2.10;;;1.95;;
8683;SDS011;4379;59.744;18.206;2023-08-06T07:57:56;1.35;;;1.35;;
8683;SDS011;4379;59.744;18.206;2023-08-06T08:00:23;1.80;;;1.70;;
8683;SDS011;4379;59.744;18.206;2023-08-06T08:02:50;1.98;;;1.88;;
8683;SDS011;4379;59.744;18.206;2023-08-06T08:05:18;2.65;;;2.17;;
8683;SDS011;4379;59.744;18.206;2023-08-06T08:07:45;2.25;;;2.03;;
8683;SDS011;4379;59.744;18.206;2023-08-06T08:10:12;2.22;;;1.88;;
8683;SDS011;4379;59.744;18.206;2023-08-06T08:12:40;2.08;;;1.92;;
8683;SDS011;4379;59.744;18.206;2023-08-06T08:15:07;2.10;;;1.70;;
8683;SDS011;4379;59.744;18.206;2023-08-06T08:17:35;2.08;;;1.98;;
8683;SDS011;4379;59.744;18.206;2023-08-06T08:20:02;1.98;;;1.70;;
8683;SDS011;4379;59.744;18.206;2023-08-06T08:22:30;2.65;;;2.20;;
8683;SDS011;4379;59.744;18.206;2023-08-06T08:24:57;2.20;;;2.10;;
8683;SDS011;4379;59.744;18.206;2023-08-06T08:27:24;2.03;;;1.83;;
8683;SDS011;4379;59.744;18.206;2023-08-06T08:29:52;1.90;;;1.80;;
8683;SDS011;4379;59.744;18.206;2023-08-06T08:32:20;2.15;;;2.00;;
8683;SDS011;4379;59.744;18.206;2023-08-06T08:34:47;2.03;;;1.90;;
8683;SDS011;4379;59.744;18.206;2023-08-06T08:37:14;2.10;;;1.90;;
8683;SDS011;4379;59.744;18.206;2023-08-06T08:39:42;2.70;;;2.00;;
8683;SDS011;4379;59.744;18.206;2023-08-06T08:42:09;2.10;;;2.00;;
8683;SDS011;4379;59.744;18.206;2023-08-06T08:44:37;2.83;;;2.53;;
8683;SDS011;4379;59.744;18.206;2023-08-06T08:47:06;2.10;;;1.98;;
8683;SDS011;4379;59.744;18.206;2023-08-06T08:49:36;1.90;;;1.80;;
8683;SDS011;4379;59.744;18.206;2023-08-06T08:52:05;2.42;;;2.20;;
8683;SDS011;4379;59.744;18.206;2023-08-06T08:54:38;4.60;;;2.45;;
8683;SDS011;4379;59.744;18.206;2023-08-06T08:57:05;2.40;;;2.20;;
8683;SDS011;4379;59.744;18.206;2023-08-06T08:59:33;2.22;;;2.10;;
8683;SDS011;4379;59.744;18.206;2023-08-06T09:02:00;3.28;;;2.38;;
8683;SDS011;4379;59.744;18.206;2023-08-06T09:04:29;2.40;;;2.30;;
8683;SDS011;4379;59.744;18.206;2023-08-06T09:07:00;2.38;;;2.17;;
8683;SDS011;4379;59.744;18.206;2023-08-06T09:09:30;2.47;;;2.28;;
8683;SDS011;4379;59.744;18.206;2023-08-06T09:12:00;2.42;;;2.22;;
8683;SDS011;4379;59.744;18.206;2023-08-06T09:14:29;2.45;;;2.30;;
8683;SDS011;4379;59.744;18.206;2023-08-06T09:16:56;2.60;;;2.10;;
8683;SDS011;4379;59.744;18.206;2023-08-06T09:19:24;2.47;;;2.30;;
8683;SDS011;4379;59.744;18.206;2023-08-06T09:21:55;2.72;;;2.10;;
8683;SDS011;4379;59.744;18.206;2023-08-06T09:24:22;3.03;;;2.17;;
8683;SDS011;4379;59.744;18.206;2023-08-06T09:26:50;2.42;;;2.22;;
8683;SDS011;4379;59.744;18.206;2023-08-06T09:29:17;2.10;;;1.92;;
8683;SDS011;4379;59.744;18.206;2023-08-06T09:31:45;2.30;;;2.10;;
8683;SDS011;4379;59.744;18.206;2023-08-06T09:34:18;2.30;;;2.10;;
8683;SDS011;4379;59.744;18.206;2023-08-06T09:36:48;2.38;;;2.17;;
8683;SDS011;4379;59.744;18.206;2023-08-06T09:39:27;4.18;;;3.63;;
8683;SDS011;4379;59.744;18.206;2023-08-06T09:41:56;2.67;;;2.33;;
8683;SDS011;4379;59.744;18.206;2023-08-06T09:44:24;4.60;;;3.05;;
8683;SDS011;4379;59.744;18.206;2023-08-06T09:46:53;6.20;;;4.07;;
8683;SDS011;4379;59.744;18.206;2023-08-06T09:49:26;3.15;;;2.38;;
8683;SDS011;4379;59.744;18.206;2023-08-06T09:51:59;2.55;;;2.30;;
8683;SDS011;4379;59.744;18.206;2023-08-06T09:54:27;2.50;;;2.30;;
8683;SDS011;4379;59.744;18.206;2023-08-06T09:56:56;2.65;;;2.35;;
8683;SDS011;4379;59.744;18.206;2023-08-06T09:59:24;3.00;;;2.28;;
8683;SDS011;4379;59.744;18.206;2023-08-06T10:01:53;2.40;;;2.20;;
8683;SDS011;4379;59.744;18.206;2023-08-06T10:04:23;2.40;;;2.10;;
8683;SDS011;4379;59.744;18.206;2023-08-06T10:06:56;2.40;;;2.20;;
8683;SDS011;4379;59.744;18.206;2023-08-06T10:09:24;2.58;;;2.38;;
8683;SDS011;4379;59.744;18.206;2023-08-06T10:11:52;2.53;;;2.33;;
8683;SDS011;4379;59.744;18.206;2023-08-06T10:14:28;2.50;;;2.28;;
8683;SDS011;4379;59.744;18.206;2023-08-06T10:17:00;2.63;;;2.42;;
8683;SDS011;4379;59.744;18.206;2023-08-06T10:19:28;2.80;;;2.60;;
8683;SDS011;4379;59.744;18.206;2023-08-06T10:22:16;2.53;;;2.30;;
8683;SDS011;4379;59.744;18.206;2023-08-06T10:24:51;2.45;;;2.25;;
8683;SDS011;4379;59.744;18.206;2023-08-06T10:27:22;2.60;;;2.40;;
8683;SDS011;4379;59.744;18.206;2023-08-06T10:29:50;2.45;;;2.30;;
8683;SDS011;4379;59.744;18.206;2023-08-06T10:32:17;2.72;;;2.38;;
8683;SDS011;4379;59.744;18.206;2023-08-06T10:34:55;2.10;;;1.90;;
8683;SDS011;4379;59.744;18.206;2023-08-06T10:37:24;3.08;;;2.08;;
8683;SDS011;4379;59.744;18.206;2023-08-06T10:40:02;2.22;;;2.03;;
8683;SDS011;4379;59.744;18.206;2023-08-06T10:42:30;2.60;;;2.40;;
8683;SDS011;4379;59.744;18.206;2023-08-06T10:45:17;2.85;;;2.08;;
8683;SDS011;4379;59.744;18.206;2023-08-06T10:47:45;2.38;;;2.22;;
8683;SDS011;4379;59.744;18.206;2023-08-06T10:50:14;2.55;;;2.35;;
8683;SDS011;4379;59.744;18.206;2023-08-06T10:52:45;2.40;;;2.20;;
8683;SDS011;4379;59.744;18.206;2023-08-06T10:55:14;2.20;;;2.10;;
8683;SDS011;4379;59.744;18.206;2023-08-06T10:57:48;4.57;;;2.40;;
8683;SDS011;4379;59.744;18.206;2023-08-06T11:00:16;3.03;;;2.40;;
8683;SDS011;4379;59.744;18.206;2023-08-06T11:02:44;2.50;;;2.30;;
8683;SDS011;4379;59.744;18.206;2023-08-06T11:05:13;2.40;;;2.20;;
8683;SDS011;4379;59.744;18.206;2023-08-06T11:07:41;2.60;;;2.40;;
8683;SDS011;4379;59.744;18.206;2023-08-06T11:10:10;2.42;;;2.22;;
8683;SDS011;4379;59.744;18.206;2023-08-06T11:12:39;2.53;;;2.33;;
8683;SDS011;4379;59.744;18.206;2023-08-06T11:15:07;2.40;;;2.20;;
8683;SDS011;4379;59.744;18.206;2023-08-06T11:17:35;2.58;;;2.35;;
8683;SDS011;4379;59.744;18.206;2023-08-06T11:20:04;2.50;;;2.30;;
8683;SDS011;4379;59.744;18.206;2023-08-06T11:22:32;2.58;;;2.38;;
8683;SDS011;4379;59.744;18.206;2023-08-06T11:24:59;2.60;;;2.40;;
8683;SDS011;4379;59.744;18.206;2023-08-06T11:27:29;2.45;;;2.25;;
8683;SDS011;4379;59.744;18.206;2023-08-06T11:29:57;2.80;;;2.60;;
8683;SDS011;4379;59.744;18.206;2023-08-06T11:32:24;2.60;;;2.40;;
8683;SDS011;4379;59.744;18.206;2023-08-06T11:34:52;3.17;;;2.50;;
8683;SDS011;4379;59.744;18.206;2023-08-06T11:37:22;3.75;;;2.60;;
8683;SDS011;4379;59.744;18.206;2023-08-06T11:39:53;2.60;;;2.40;;
8683;SDS011;4379;59.744;18.206;2023-08-06T11:42:20;2.92;;;2.70;;
8683;SDS011;4379;59.744;18.206;2023-08-06T11:44:49;2.95;;;2.65;;
8683;SDS011;4379;59.744;18.206;2023-08-06T11:47:16;2.75;;;2.53;;
8683;SDS011;4379;59.744;18.206;2023-08-06T11:49:48;2.88;;;2.67;;
8683;SDS011;4379;59.744;18.206;2023-08-06T11:52:20;3.10;;;2.90;;
8683;SDS011;4379;59.744;18.206;2023-08-06T11:55:08;3.80;;;2.90;;
8683;SDS011;4379;59.744;18.206;2023-08-06T11:57:44;3.00;;;2.78;;
8683;SDS011;4379;59.744;18.206;2023-08-06T12:00:12;3.33;;;2.88;;
8683;SDS011;4379;59.744;18.206;2023-08-06T12:02:41;3.47;;;3.15;;
8683;SDS011;4379;59.744;18.206;2023-08-06T12:05:11;3.70;;;3.10;;
8683;SDS011;4379;59.744;18.206;2023-08-06T12:07:47;3.35;;;3.05;;
8683;SDS011;4379;59.744;18.206;2023-08-06T12:10:17;4.97;;;3.53;;
8683;SDS011;4379;59.744;18.206;2023-08-06T12:12:46;3.20;;;3.00;;
8683;SDS011;4379;59.744;18.206;2023-08-06T12:15:13;4.28;;;3.58;;
8683;SDS011;4379;59.744;18.206;2023-08-06T12:17:41;3.58;;;3.28;;
8683;SDS011;4379;59.744;18.206;2023-08-06T12:20:09;3.75;;;3.45;;
8683;SDS011;4379;59.744;18.206;2023-08-06T12:22:37;3.38;;;3.15;;
8683;SDS011;4379;59.744;18.206;2023-08-06T12:25:10;3.53;;;3.33;;
8683;SDS011;4379;59.744;18.206;2023-08-06T12:27:40;3.80;;;3.50;;
8683;SDS011;4379;59.744;18.206;2023-08-06T12:30:09;4.32;;;3.92;;
8683;SDS011;4379;59.744;18.206;2023-08-06T12:32:38;3.58;;;3.28;;
8683;SDS011;4379;59.744;18.206;2023-08-06T12:35:05;4.00;;;3.70;;
8683;SDS011;4379;59.744;18.206;2023-08-06T12:37:36;3.97;;;3.67;;
8683;SDS011;4379;59.744;18.206;2023-08-06T12:40:05;3.72;;;3.40;;
8683;SDS011;4379;59.744;18.206;2023-08-06T12:42:53;3.22;;;3.03;;
8683;SDS011;4379;59.744;18.206;2023-08-06T12:45:21;3.92;;;3.60;;
8683;SDS011;4379;59.744;18.206;2023-08-06T12:47:49;3.80;;;3.60;;
8683;SDS011;4379;59.744;18.206;2023-08-06T12:50:17;3.85;;;3.55;;
8683;SDS011;4379;59.744;18.206;2023-08-06T12:52:44;5.35;;;3.72;;
8683;SDS011;4379;59.744;18.206;2023-08-06T12:55:12;3.75;;;3.45;;
8683;SDS011;4379;59.744;18.206;2023-08-06T12:57:39;3.60;;;3.30;;
8683;SDS011;4379;59.744;18.206;2023-08-06T13:00:22;3.75;;;3.45;;
8683;SDS011;4379;59.744;18.206;2023-08-06T13:02:49;3.92;;;3.60;;
8683;SDS011;4379;59.744;18.206;2023-08-06T13:05:17;4.85;;;3.70;;
8683;SDS011;4379;59.744;18.206;2023-08-06T13:07:45;4.25;;;3.85;;
8683;SDS011;4379;59.744;18.206;2023-08-06T13:10:12;4.78;;;4.07;;
8683;SDS011;4379;59.744;18.206;2023-08-06T13:12:39;4.25;;;3.85;;
8683;SDS011;4379;59.744;18.206;2023-08-06T13:15:07;4.70;;;3.63;;
8683;SDS011;4379;59.744;18.206;2023-08-06T13:17:35;6.25;;;4.07;;
8683;SDS011;4379;59.744;18.206;2023-08-06T13:20:02;4.40;;;3.83;;
8683;SDS011;4379;59.744;18.206;2023-08-06T13:22:30;4.07;;;3.78;;
8683;SDS011;4379;59.744;18.206;2023-08-06T13:24:57;4.07;;;3.80;;
8683;SDS011;4379;59.744;18.206;2023-08-06T13:27:25;3.92;;;3.60;;
8683;SDS011;4379;59.744;18.206;2023-08-06T13:29:52;3.75;;;3.45;;
8683;SDS011;4379;59.744;18.206;2023-08-06T13:32:19;4.07;;;3.78;;
8683;SDS011;4379;59.744;18.206;2023-08-06T13:34:47;4.13;;;3.83;;
8683;SDS011;4379;59.744;18.206;2023-08-06T13:37:14;4.07;;;3.78;;
8683;SDS011;4379;59.744;18.206;2023-08-06T13:39:41;3.58;;;3.38;;
8683;SDS011;4379;59.744;18.206;2023-08-06T13:42:09;3.90;;;3.60;;
8683;SDS011;4379;59.744;18.206;2023-08-06T13:44:36;4.15;;;3.85;;
8683;SDS011;4379;59.744;18.206;2023-08-06T13:47:03;5.20;;;3.95;;
8683;SDS011;4379;59.744;18.206;2023-08-06T13:49:31;3.85;;;3.55;;
8683;SDS011;4379;59.744;18.206;2023-08-06T13:52:15;3.90;;;3.70;;
8683;SDS011;4379;59.744;18.206;2023-08-06T13:54:48;3.83;;;3.42;;
8683;SDS011;4379;59.744;18.206;2023-08-06T13:57:15;4.50;;;3.95;;
8683;SDS011;4379;59.744;18.206;2023-08-06T13:59:44;4.10;;;3.72;;
8683;SDS011;4379;59.744;18.206;2023-08-06T14:02:13;4.38;;;4.07;;
8683;SDS011;4379;59.744;18.206;2023-08-06T14:04:41;5.05;;;3.95;;
8683;SDS011;4379;59.744;18.206;2023-08-06T14:07:09;4.70;;;4.00;;
8683;SDS011;4379;59.744;18.206;2023-08-06T14:09:36;3.88;;;3.58;;
8683;SDS011;4379;59.744;18.206;2023-08-06T14:12:04;6.07;;;4.15;;
8683;SDS011;4379;59.744;18.206;2023-08-06T14:14:32;4.97;;;4.57;;
8683;SDS011;4379;59.744;18.206;2023-08-06T14:17:00;5.95;;;4.45;;
8683;SDS011;4379;59.744;18.206;2023-08-06T14:19:28;4.65;;;4.32;;
8683;SDS011;4379;59.744;18.206;2023-08-06T14:21:56;4.70;;;4.32;;
8683;SDS011;4379;59.744;18.206;2023-08-06T14:24:23;4.82;;;4.43;;
8683;SDS011;4379;59.744;18.206;2023-08-06T14:26:51;5.63;;;4.70;;
8683;SDS011;4379;59.744;18.206;2023-08-06T14:29:19;4.75;;;4.45;;
8683;SDS011;4379;59.744;18.206;2023-08-06T14:31:46;4.60;;;4.30;;
8683;SDS011;4379;59.744;18.206;2023-08-06T14:34:14;4.82;;;4.47;;
8683;SDS011;4379;59.744;18.206;2023-08-06T14:36:42;4.53;;;4.22;;
8683;SDS011;4379;59.744;18.206;2023-08-06T14:39:09;5.00;;;4.60;;
8683;SDS011;4379;59.744;18.206;2023-08-06T14:41:37;5.22;;;4.80;;
8683;SDS011;4379;59.744;18.206;2023-08-06T14:44:04;4.60;;;4.30;;
8683;SDS011;4379;59.744;18.206;2023-08-06T14:46:36;5.13;;;4.60;;
8683;SDS011;4379;59.744;18.206;2023-08-06T14:49:03;5.07;;;4.60;;
8683;SDS011;4379;59.744;18.206;2023-08-06T14:51:31;5.07;;;4.68;;
8683;SDS011;4379;59.744;18.206;2023-08-06T14:54:01;4.90;;;4.60;;
8683;SDS011;4379;59.744;18.206;2023-08-06T14:56:31;4.55;;;4.35;;
8683;SDS011;4379;59.744;18.206;2023-08-06T14:58:59;5.03;;;4.53;;
8683;SDS011;4379;59.744;18.206;2023-08-06T15:01:27;5.05;;;4.32;;
8683;SDS011;4379;59.744;18.206;2023-08-06T15:03:55;4.82;;;4.60;;
8683;SDS011;4379;59.744;18.206;2023-08-06T15:06:22;4.97;;;4.57;;
8683;SDS011;4379;59.744;18.206;2023-08-06T15:08:50;5.55;;;5.05;;
8683;SDS011;4379;59.744;18.206;2023-08-06T15:11:17;5.00;;;4.70;;
8683;SDS011;4379;59.744;18.206;2023-08-06T15:13:46;5.18;;;4.88;;
8683;SDS011;4379;59.744;18.206;2023-08-06T15:16:13;5.50;;;5.00;;